createdAt,value
2022-09-23T00:01:29.401Z,99551.61
2022-09-23T00:03:59.724Z,99559.19
2022-09-23T00:06:30.901Z,99554.48
2022-09-23T00:08:59.047Z,99554.40
2022-09-23T00:11:29.155Z,99553.86
2022-09-23T00:13:59.247Z,99550.63
2022-09-23T00:16:34.315Z,99550.94
2022-09-23T00:19:04.304Z,99550.77
2022-09-23T00:21:32.729Z,99548.63
2022-09-23T00:24:02.537Z,99546.70
2022-09-23T00:26:30.582Z,99549.56
2022-09-23T00:28:58.796Z,99543.41
2022-09-23T00:31:28.049Z,99545.23
2022-09-23T00:34:01.011Z,99543.18
2022-09-23T00:36:32.412Z,99541.00
2022-09-23T00:39:00.604Z,99539.08
2022-09-23T00:41:28.904Z,99535.34
2022-09-23T00:43:59.911Z,99534.13
2022-09-23T00:46:40.150Z,99535.70
2022-09-23T00:49:18.007Z,99534.73
2022-09-23T00:51:59.068Z,99537.74
2022-09-23T00:54:29.786Z,99533.52
2022-09-23T00:57:00.680Z,99535.39
2022-09-23T00:59:29.622Z,99531.61
2022-09-23T01:02:00.655Z,99532.84
2022-09-23T01:04:30.473Z,99530.95
2022-09-23T01:06:58.797Z,99523.86
2022-09-23T01:09:27.151Z,99521.61
2022-09-23T01:12:01.491Z,99519.46
2022-09-23T01:14:57.616Z,99519.42
2022-09-23T01:17:31.526Z,99519.75
2022-09-23T01:20:45.868Z,99515.11
2022-09-23T01:23:35.610Z,99511.15
2022-09-23T01:26:25.655Z,99512.64
2022-09-23T01:29:09.246Z,99510.56
2022-09-23T01:31:59.824Z,99511.65
2022-09-23T01:34:57.524Z,99512.58
2022-09-23T01:38:01.266Z,99510.27
2022-09-23T01:41:00.854Z,99509.09
2022-09-23T01:43:57.055Z,99511.02
2022-09-23T01:46:44.290Z,99510.80
2022-09-23T01:49:21.750Z,99514.70
2022-09-23T01:51:57.834Z,99515.41
2022-09-23T01:54:41.290Z,99515.98
2022-09-23T01:57:19.034Z,99510.28
2022-09-23T01:59:53.142Z,99510.16
2022-09-23T02:02:34.339Z,99511.15
2022-09-23T02:05:15.810Z,99512.95
2022-09-23T02:08:00.161Z,99512.02
2022-09-23T02:10:44.831Z,99514.33
2022-09-23T02:14:05.774Z,99515.91
2022-09-23T02:16:51.807Z,99515.55
2022-09-23T02:19:40.481Z,99515.06
2022-09-23T02:22:15.434Z,99511.09
2022-09-23T02:24:45.323Z,99516.70
2022-09-23T02:27:35.742Z,99512.29
2022-09-23T02:30:09.214Z,99511.04
2022-09-23T02:32:55.155Z,99510.48
2022-09-23T02:35:51.827Z,99512.84
2022-09-23T02:38:39.892Z,99510.80
2022-09-23T02:41:37.435Z,99511.02
2022-09-23T02:44:14.266Z,99515.91
2022-09-23T02:46:45.894Z,99519.03
2022-09-23T02:49:20.431Z,99519.01
2022-09-23T02:51:49.057Z,99521.44
2022-09-23T02:54:21.153Z,99518.92
2022-09-23T02:56:50.037Z,99516.97
2022-09-23T02:59:20.600Z,99520.77
2022-09-23T03:01:53.100Z,99523.77
2022-09-23T03:04:57.270Z,99524.13
2022-09-23T03:07:55.535Z,99520.25
2022-09-23T03:10:35.499Z,99522.67
2022-09-23T03:13:30.701Z,99518.59
2022-09-23T03:16:11.024Z,99514.80
2022-09-23T03:18:51.949Z,99517.52
2022-09-23T03:21:45.773Z,99513.16
2022-09-23T03:24:15.465Z,99507.77
2022-09-23T03:26:47.685Z,99508.05
2022-09-23T03:29:17.194Z,99503.05
2022-09-23T03:31:46.421Z,99508.30
2022-09-23T03:34:21.374Z,99506.66
2022-09-23T03:37:01.958Z,99507.33
2022-09-23T03:39:33.439Z,99504.98
2022-09-23T03:42:13.495Z,99505.05
2022-09-23T03:44:44.739Z,99502.83
2022-09-23T03:47:15.264Z,99495.88
2022-09-23T03:49:48.572Z,99498.61
2022-09-23T03:52:22.485Z,99494.46
2022-09-23T03:54:53.964Z,99498.48
2022-09-23T03:57:22.884Z,99497.73
2022-09-23T03:59:51.720Z,99501.61
2022-09-23T04:02:21.355Z,99506.54
2022-09-23T04:04:49.909Z,99502.33
2022-09-23T04:07:18.285Z,99506.27
2022-09-23T04:09:46.598Z,99503.76
2022-09-23T04:12:17.206Z,99503.98
2022-09-23T04:14:45.850Z,99501.83
2022-09-23T04:17:14.763Z,99506.60
2022-09-23T04:19:43.682Z,99507.50
2022-09-23T04:22:12.064Z,99510.04
2022-09-23T04:24:40.333Z,99506.20
2022-09-23T04:27:08.587Z,99510.61
2022-09-23T04:29:36.988Z,99508.56
2022-09-23T04:32:05.390Z,99508.38
2022-09-23T04:34:33.859Z,99506.34
2022-09-23T04:37:02.103Z,99511.86
2022-09-23T04:39:30.444Z,99514.06
2022-09-23T04:42:00.020Z,99515.45
2022-09-23T04:44:28.487Z,99511.97
2022-09-23T04:46:56.819Z,99510.48
2022-09-23T04:49:25.856Z,99504.52
2022-09-23T04:51:54.782Z,99507.60
2022-09-23T04:54:23.523Z,99504.36
2022-09-23T04:56:52.195Z,99505.60
2022-09-23T04:59:20.439Z,99502.44
2022-09-23T05:01:50.006Z,99504.18
2022-09-23T05:04:18.338Z,99503.73
2022-09-23T05:06:46.612Z,99504.45
2022-09-23T05:09:19.874Z,99505.84
2022-09-23T05:11:48.822Z,99509.79
2022-09-23T05:14:17.078Z,99511.30
2022-09-23T05:16:45.907Z,99512.16
2022-09-23T05:19:14.230Z,99514.70
2022-09-23T05:21:42.498Z,99514.81
2022-09-23T05:24:12.585Z,99512.27
2022-09-23T05:26:41.031Z,99515.91
2022-09-23T05:29:09.407Z,99514.52
2022-09-23T05:31:37.827Z,99518.79
2022-09-23T05:34:07.069Z,99516.88
2022-09-23T05:36:38.903Z,99517.06
2022-09-23T05:39:08.820Z,99515.86
2022-09-23T05:41:37.881Z,99513.89
2022-09-23T05:44:06.268Z,99516.17
2022-09-23T05:46:35.445Z,99521.61
2022-09-23T05:49:05.805Z,99525.34
2022-09-23T05:51:35.958Z,99524.30
2022-09-23T05:54:05.725Z,99527.45
2022-09-23T05:56:35.436Z,99523.68
2022-09-23T05:59:05.365Z,99527.29
2022-09-23T06:01:36.723Z,99527.66
2022-09-23T06:04:08.293Z,99530.01
2022-09-23T06:06:39.574Z,99528.65
2022-09-23T06:09:13.902Z,99530.46
2022-09-23T06:11:43.825Z,99530.77
2022-09-23T06:14:15.113Z,99530.66
2022-09-23T06:16:43.631Z,99527.57
2022-09-23T06:19:12.190Z,99525.75
2022-09-23T06:21:41.761Z,99527.89
2022-09-23T06:24:14.117Z,99524.83
2022-09-23T06:26:45.350Z,99527.08
2022-09-23T06:29:14.804Z,99529.79
2022-09-23T06:31:43.601Z,99530.90
2022-09-23T06:34:14.769Z,99528.14
2022-09-23T06:36:46.167Z,99526.80
2022-09-23T06:39:15.916Z,99533.71
2022-09-23T06:41:45.423Z,99534.05
2022-09-23T06:44:15.881Z,99536.25
2022-09-23T06:46:44.338Z,99536.73
2022-09-23T06:49:13.823Z,99539.25
2022-09-23T06:51:42.159Z,99537.95
2022-09-23T06:54:11.398Z,99536.05
2022-09-23T06:56:40.348Z,99538.92
2022-09-23T06:59:13.196Z,99540.67
2022-09-23T07:01:41.917Z,99540.73
2022-09-23T07:04:11.082Z,99540.59
2022-09-23T07:06:40.383Z,99542.50
2022-09-23T07:09:09.247Z,99542.00
2022-09-23T07:11:38.080Z,99541.80
2022-09-23T07:14:07.403Z,99542.57
2022-09-23T07:16:35.813Z,99541.66
2022-09-23T07:19:04.166Z,99540.75
2022-09-23T07:21:32.584Z,99538.74
2022-09-23T07:24:01.107Z,99536.67
2022-09-23T07:26:29.687Z,99539.23
2022-09-23T07:29:05.174Z,99537.38
2022-09-23T07:31:39.498Z,99544.27
2022-09-23T07:34:11.969Z,99546.09
2022-09-23T07:36:41.325Z,99542.92
2022-09-23T07:39:12.639Z,99545.44
2022-09-23T07:41:44.868Z,99547.60
2022-09-23T07:44:13.350Z,99550.69
2022-09-23T07:46:42.077Z,99549.70
2022-09-23T07:49:11.646Z,99547.72
2022-09-23T07:51:43.127Z,99546.74
2022-09-23T07:54:14.927Z,99543.02
2022-09-23T07:56:44.279Z,99539.48
2022-09-23T07:59:15.643Z,99537.84
2022-09-23T08:01:54.511Z,99539.60
2022-09-23T08:04:29.844Z,99536.38
2022-09-23T08:07:00.864Z,99540.76
2022-09-23T08:09:35.677Z,99544.15
2022-09-23T08:12:04.137Z,99540.54
2022-09-23T08:14:32.559Z,99540.05
2022-09-23T08:17:00.797Z,99538.31
2022-09-23T08:19:29.079Z,99537.92
2022-09-23T08:21:57.959Z,99535.77
2022-09-23T08:24:26.911Z,99537.40
2022-09-23T08:26:55.189Z,99536.61
2022-09-23T08:29:25.506Z,99538.52
2022-09-23T08:31:55.006Z,99539.77
2022-09-23T08:34:23.961Z,99532.69
2022-09-23T08:36:52.550Z,99529.98
2022-09-23T08:39:21.418Z,99532.77
2022-09-23T08:42:04.676Z,99532.21
2022-09-23T08:44:54.647Z,99527.16
2022-09-23T08:47:32.364Z,99525.96
2022-09-23T08:50:09.024Z,99522.83
2022-09-23T08:52:55.227Z,99516.53
2022-09-23T08:55:37.347Z,99519.30
2022-09-23T08:58:30.970Z,99515.41
2022-09-23T09:01:05.761Z,99523.23
2022-09-23T09:03:35.942Z,99519.41
2022-09-23T09:06:04.377Z,99518.98
2022-09-23T09:08:36.815Z,99518.52
2022-09-23T09:11:06.991Z,99516.55
2022-09-23T09:13:45.214Z,99513.76
2022-09-23T09:16:48.333Z,99512.52
2022-09-23T09:19:42.535Z,99511.64
2022-09-23T09:22:40.563Z,99509.25
2022-09-23T09:25:17.867Z,99508.70
2022-09-23T09:27:47.766Z,99505.59
2022-09-23T09:30:17.586Z,99502.13
2022-09-23T09:33:00.895Z,99498.83
2022-09-23T09:35:38.437Z,99495.34
2022-09-23T09:38:07.140Z,99491.11
2022-09-23T09:40:35.560Z,99481.06
2022-09-23T09:43:04.961Z,99484.92
2022-09-23T09:46:02.021Z,99486.29
2022-09-23T09:48:54.018Z,99488.05
2022-09-23T09:51:28.087Z,99484.54
2022-09-23T09:54:17.650Z,99480.04
2022-09-23T09:59:30.420Z,99468.62
2022-09-23T10:02:30.570Z,99469.66
2022-09-23T10:05:07.633Z,99476.14
2022-09-23T10:07:36.014Z,99483.62
2022-09-23T10:10:39.529Z,99481.35
2022-09-23T10:13:16.456Z,99480.48
2022-09-23T10:15:45.640Z,99484.41
2022-09-23T10:18:20.898Z,99484.70
2022-09-23T10:20:49.332Z,99483.83
2022-09-23T10:23:28.857Z,99480.54
2022-09-23T10:26:01.108Z,99473.91
2022-09-23T10:28:38.536Z,99470.79
2022-09-23T10:31:14.415Z,99461.05
2022-09-23T10:33:51.455Z,99458.05
2022-09-23T10:36:19.752Z,99453.39
2022-09-23T10:38:52.474Z,99455.90
2022-09-23T10:41:57.927Z,99456.20
2022-09-23T10:44:50.820Z,99459.59
2022-09-23T10:48:10.683Z,99463.55
2022-09-23T10:50:52.110Z,99469.23
2022-09-23T10:53:35.434Z,99472.10
2022-09-23T10:56:16.073Z,99472.88
2022-09-23T10:59:07.268Z,99469.34
2022-09-23T11:01:59.468Z,99464.08
2022-09-23T11:04:39.780Z,99457.91
2022-09-23T11:07:19.087Z,99452.58
2022-09-23T11:10:02.951Z,99448.10
2022-09-23T11:12:56.361Z,99436.30
2022-09-23T11:15:52.813Z,99434.61
2022-09-23T11:18:52.541Z,99428.33
2022-09-23T11:21:46.157Z,99422.92
2022-09-23T11:24:23.656Z,99420.58
2022-09-23T11:27:26.411Z,99422.46
2022-09-23T11:30:13.372Z,99422.69
2022-09-23T11:33:14.502Z,99423.54
2022-09-23T11:35:48.701Z,99424.90
2022-09-23T11:38:26.357Z,99422.64
2022-09-23T11:41:27.425Z,99424.30
2022-09-23T11:44:20.416Z,99423.02
2022-09-23T11:47:01.868Z,99421.20
2022-09-23T11:49:37.328Z,99419.10
2022-09-23T11:52:26.300Z,99418.97
2022-09-23T11:55:01.582Z,99416.73
2022-09-23T11:58:24.906Z,99418.11
2022-09-23T12:01:29.339Z,99422.68
2022-09-23T12:04:20.101Z,99412.50
2022-09-23T12:06:57.278Z,99412.48
2022-09-23T12:09:56.769Z,99405.80
2022-09-23T12:12:48.321Z,99406.94
2022-09-23T12:15:39.829Z,99401.73
2022-09-23T12:18:42.527Z,99398.79
2022-09-23T12:21:27.159Z,99392.47
2022-09-23T12:24:22.823Z,99383.20
2022-09-23T12:26:57.550Z,99378.27
2022-09-23T12:32:00.187Z,99366.27
2022-09-23T12:34:34.658Z,99365.85
2022-09-23T12:37:06.487Z,99367.50
2022-09-23T12:39:38.872Z,99358.66
2022-09-23T12:42:17.472Z,99356.73
2022-09-23T12:44:48.776Z,99355.99
2022-09-23T12:47:25.858Z,99353.92
2022-09-23T12:49:58.964Z,99354.38
2022-09-23T12:52:33.400Z,99351.49
2022-09-23T12:55:33.942Z,99348.92
2022-09-23T12:58:02.248Z,99346.55
2022-09-23T13:00:34.197Z,99342.71
2022-09-23T13:03:22.012Z,99337.92
2022-09-23T13:06:18.904Z,99340.29
2022-09-23T13:08:49.577Z,99341.01
2022-09-23T13:11:29.690Z,99336.71
2022-09-23T13:14:03.911Z,99337.05
2022-09-23T13:16:44.537Z,99338.59
2022-09-23T13:19:27.887Z,99336.16
2022-09-23T13:22:11.427Z,99333.91
2022-09-23T13:24:46.307Z,99327.73
2022-09-23T13:27:17.654Z,99332.14
2022-09-23T13:30:04.643Z,99332.56
2022-09-23T13:32:50.292Z,99333.30
2022-09-23T13:35:30.958Z,99335.14
2022-09-23T13:37:59.291Z,99333.69
2022-09-23T13:40:29.528Z,99332.14
2022-09-23T13:43:20.962Z,99328.48
2022-09-23T13:45:50.418Z,99326.59
2022-09-23T13:48:21.046Z,99324.42
2022-09-23T13:50:53.608Z,99316.59
2022-09-23T13:53:28.922Z,99315.01
2022-09-23T13:56:13.255Z,99314.81
2022-09-23T13:58:43.709Z,99309.17
2022-09-23T14:01:45.849Z,99309.97
2022-09-23T14:04:25.708Z,99306.86
2022-09-23T14:06:55.899Z,99306.67
2022-09-23T14:09:28.944Z,99307.96
2022-09-23T14:12:00.802Z,99302.45
2022-09-23T14:14:30.864Z,99303.38
2022-09-23T14:16:59.675Z,99292.49
2022-09-23T14:19:28.174Z,99293.61
2022-09-23T14:21:56.575Z,99292.79
2022-09-23T14:24:35.367Z,99294.92
2022-09-23T14:27:15.947Z,99300.41
2022-09-23T14:29:47.051Z,99302.33
2022-09-23T14:32:25.362Z,99298.84
2022-09-23T14:35:07.192Z,99298.10
2022-09-23T14:37:56.631Z,99299.88
2022-09-23T14:40:29.907Z,99298.26
2022-09-23T14:43:19.094Z,99297.11
2022-09-23T14:45:52.467Z,99294.80
2022-09-23T14:48:33.094Z,99291.95
2022-09-23T14:51:08.208Z,99295.52
2022-09-23T14:53:46.618Z,99295.45
2022-09-23T14:56:20.967Z,99297.58
2022-09-23T14:58:53.722Z,99303.06
2022-09-23T15:01:31.458Z,99303.67
2022-09-23T15:04:10.059Z,99305.31
2022-09-23T15:06:42.445Z,99300.03
2022-09-23T15:09:20.316Z,99303.24
2022-09-23T15:11:52.061Z,99301.00
2022-09-23T15:14:37.164Z,99301.43
2022-09-23T15:17:36.247Z,99297.54
2022-09-23T15:20:19.343Z,99295.20
2022-09-23T15:22:50.383Z,99295.29
2022-09-23T15:25:23.384Z,99296.86
2022-09-23T15:27:57.868Z,99296.77
2022-09-23T15:30:26.856Z,99298.36
2022-09-23T15:32:55.295Z,99297.10
2022-09-23T15:35:28.455Z,99296.52
2022-09-23T15:37:58.989Z,99295.67
2022-09-23T15:40:35.188Z,99294.17
2022-09-23T15:43:21.148Z,99295.97
2022-09-23T15:45:50.698Z,99295.83
2022-09-23T15:48:23.428Z,99297.50
2022-09-23T15:50:53.074Z,99298.93
2022-09-23T15:53:28.084Z,99296.26
2022-09-23T15:55:58.803Z,99297.08
2022-09-23T15:58:27.890Z,99295.02
2022-09-23T16:00:57.420Z,99299.15
2022-09-23T16:03:30.475Z,99298.99
2022-09-23T16:06:03.405Z,99304.27
2022-09-23T16:08:33.365Z,99306.27
2022-09-23T16:11:02.000Z,99307.47
2022-09-23T16:13:30.209Z,99310.04
2022-09-23T16:16:00.094Z,99311.19
2022-09-23T16:18:29.057Z,99308.59
2022-09-23T16:20:59.168Z,99306.90
2022-09-23T16:23:37.397Z,99303.89
2022-09-23T16:26:27.615Z,99309.36
2022-09-23T16:28:58.236Z,99309.77
2022-09-23T16:31:27.411Z,99310.68
2022-09-23T16:33:56.656Z,99308.98
2022-09-23T16:36:27.246Z,99310.52
2022-09-23T16:38:55.943Z,99308.84
2022-09-23T16:41:25.796Z,99311.96
2022-09-23T16:43:54.182Z,99310.84
2022-09-23T16:46:26.150Z,99316.08
2022-09-23T16:48:55.877Z,99314.91
2022-09-23T16:51:38.630Z,99313.90
2022-09-23T16:54:10.566Z,99312.73
2022-09-23T16:56:45.341Z,99314.86
2022-09-23T16:59:14.939Z,99313.82
2022-09-23T17:02:04.024Z,99311.88
2022-09-23T17:04:32.870Z,99311.77
2022-09-23T17:07:03.420Z,99313.02
2022-09-23T17:09:32.602Z,99320.64
2022-09-23T17:12:24.531Z,99318.02
2022-09-23T17:14:53.420Z,99322.36
2022-09-23T17:17:22.584Z,99322.09
2022-09-23T17:19:50.963Z,99324.61
2022-09-23T17:22:22.095Z,99324.28
2022-09-23T17:24:50.408Z,99317.64
2022-09-23T17:27:21.732Z,99317.49
2022-09-23T17:29:50.063Z,99320.95
2022-09-23T17:32:18.356Z,99318.95
2022-09-23T17:34:48.277Z,99322.86
2022-09-23T17:37:16.789Z,99320.92
2022-09-23T17:39:45.311Z,99318.76
2022-09-23T17:42:14.798Z,99320.48
2022-09-23T17:44:43.316Z,99317.52
2022-09-23T17:47:11.661Z,99321.58
2022-09-23T17:49:40.030Z,99319.84
2022-09-23T17:52:08.874Z,99320.65
2022-09-23T17:54:37.236Z,99318.71
2022-09-23T17:57:05.455Z,99318.20
2022-09-23T17:59:36.273Z,99318.80
2022-09-23T18:02:07.510Z,99321.69
2022-09-23T18:04:35.827Z,99321.39
2022-09-23T18:07:04.180Z,99319.91
2022-09-23T18:09:32.544Z,99323.61
2022-09-23T18:12:02.099Z,99324.22
2022-09-23T18:14:30.463Z,99327.38
2022-09-23T18:16:58.675Z,99332.02
2022-09-23T18:19:26.955Z,99331.00
2022-09-23T18:21:58.769Z,99332.99
2022-09-23T18:24:34.355Z,99333.51
2022-09-23T18:27:06.692Z,99335.45
2022-09-23T18:29:36.324Z,99330.27
2022-09-23T18:32:04.700Z,99328.58
2022-09-23T18:34:34.589Z,99336.42
2022-09-23T18:37:02.960Z,99336.90
2022-09-23T18:39:31.224Z,99339.00
2022-09-23T18:42:00.516Z,99334.75
2022-09-23T18:44:28.838Z,99335.45
2022-09-23T18:46:57.424Z,99334.27
2022-09-23T18:49:44.439Z,99331.23
2022-09-23T18:52:13.666Z,99329.45
2022-09-23T18:54:42.762Z,99329.38
2022-09-23T18:57:14.956Z,99329.73
2022-09-23T18:59:50.175Z,99328.59
2022-09-23T19:02:18.496Z,99330.77
2022-09-23T19:04:47.000Z,99329.20
2022-09-23T19:07:16.151Z,99331.45
2022-09-23T19:09:44.342Z,99330.55
2022-09-23T19:12:12.732Z,99334.84
2022-09-23T19:14:42.812Z,99330.40
2022-09-23T19:17:11.510Z,99329.11
2022-09-23T19:19:41.212Z,99331.27
2022-09-23T19:22:09.552Z,99331.59
2022-09-23T19:24:37.943Z,99329.88
2022-09-23T19:27:06.630Z,99330.19
2022-09-23T19:29:34.890Z,99330.05
2022-09-23T19:32:03.152Z,99329.70
2022-09-23T19:34:32.726Z,99332.41
2022-09-23T19:37:05.482Z,99330.50
2022-09-23T19:39:37.763Z,99333.55
2022-09-23T19:42:05.996Z,99336.48
2022-09-23T19:44:38.002Z,99332.20
2022-09-23T19:47:06.482Z,99333.72
2022-09-23T19:49:35.902Z,99336.58
2022-09-23T19:52:04.175Z,99337.48
2022-09-23T19:54:32.535Z,99339.33
2022-09-23T19:57:01.521Z,99337.77
2022-09-23T19:59:29.891Z,99338.83
2022-09-23T20:01:58.415Z,99339.58
2022-09-23T20:04:26.811Z,99342.60
2022-09-23T20:06:55.077Z,99343.13
2022-09-23T20:09:23.405Z,99345.08
2022-09-23T20:11:52.351Z,99349.82
2022-09-23T20:14:21.016Z,99351.69
2022-09-23T20:16:49.565Z,99349.49
2022-09-23T20:19:17.930Z,99350.30
2022-09-23T20:22:06.243Z,99351.61
2022-09-23T20:24:34.596Z,99352.44
2022-09-23T20:27:08.913Z,99346.37
2022-09-23T20:29:37.853Z,99344.08
2022-09-23T20:32:06.267Z,99343.21
2022-09-23T20:34:34.645Z,99343.77
2022-09-23T20:37:04.655Z,99341.92
2022-09-23T20:39:32.914Z,99344.23
2022-09-23T20:42:02.930Z,99345.23
2022-09-23T20:44:31.303Z,99345.94
2022-09-23T20:46:59.664Z,99348.00
2022-09-23T20:49:29.231Z,99343.67
2022-09-23T20:51:57.482Z,99341.04
2022-09-23T20:54:25.871Z,99340.08
2022-09-23T20:56:54.137Z,99340.35
2022-09-23T20:59:22.483Z,99339.13
2022-09-23T21:01:55.687Z,99333.14
2022-09-23T21:04:28.454Z,99333.98
2022-09-23T21:06:58.450Z,99333.67
2022-09-23T21:09:29.076Z,99331.45
2022-09-23T21:11:58.074Z,99328.73
2022-09-23T21:14:26.371Z,99325.61
2022-09-23T21:16:57.780Z,99322.73
2022-09-23T21:19:28.188Z,99321.15
2022-09-23T21:21:56.543Z,99316.42
2022-09-23T21:25:00.404Z,99314.39
2022-09-23T21:27:13.175Z,99319.67
2022-09-23T21:29:41.465Z,99321.61
2022-09-23T21:32:10.668Z,99321.49
2022-09-23T21:34:39.127Z,99324.41
2022-09-23T21:37:08.645Z,99327.63
2022-09-23T21:39:36.879Z,99332.36
2022-09-23T21:42:06.191Z,99329.30
2022-09-23T21:44:34.998Z,99326.32
2022-09-23T21:47:03.295Z,99324.87
2022-09-23T21:49:32.620Z,99323.54
2022-09-23T21:52:01.071Z,99329.71
2022-09-23T21:54:29.955Z,99330.06
2022-09-23T21:56:58.329Z,99333.62
2022-09-23T21:59:27.575Z,99333.80
2022-09-23T22:01:55.872Z,99333.52
2022-09-23T22:04:24.274Z,99334.59
2022-09-23T22:06:54.194Z,99331.79
2022-09-23T22:09:22.570Z,99332.36
2022-09-23T22:12:08.775Z,99330.77
2022-09-23T22:14:39.182Z,99329.72
2022-09-23T22:17:10.739Z,99328.46
2022-09-23T22:19:45.994Z,99324.58
2022-09-23T22:22:18.115Z,99326.98
2022-09-23T22:24:48.203Z,99325.17
2022-09-23T22:27:19.375Z,99325.80
2022-09-23T22:30:06.775Z,99324.66
2022-09-23T22:32:40.893Z,99321.27
2022-09-23T22:35:18.039Z,99320.17
2022-09-23T22:37:48.059Z,99323.15
2022-09-23T22:40:16.817Z,99320.17
2022-09-23T22:42:45.961Z,99319.90
2022-09-23T22:45:14.800Z,99319.92
2022-09-23T22:47:45.830Z,99319.00
2022-09-23T22:50:15.622Z,99318.64
2022-09-23T22:52:45.193Z,99319.99
2022-09-23T22:55:13.538Z,99319.42
2022-09-23T22:57:41.814Z,99319.19
2022-09-23T23:00:12.968Z,99319.11
2022-09-23T23:02:42.752Z,99316.40
2022-09-23T23:05:11.674Z,99310.80
2022-09-23T23:07:40.757Z,99305.81
2022-09-23T23:10:10.704Z,99307.02
2022-09-23T23:12:39.791Z,99306.21
2022-09-23T23:15:12.658Z,99306.61
2022-09-23T23:17:43.720Z,99302.71
2022-09-23T23:20:12.205Z,99307.72
2022-09-23T23:22:40.486Z,99309.41
2022-09-23T23:25:09.934Z,99309.30
2022-09-23T23:27:38.319Z,99300.84
2022-09-23T23:30:08.579Z,99296.75
2022-09-23T23:32:37.516Z,99294.06
2022-09-23T23:35:06.317Z,99287.98
2022-09-23T23:37:34.627Z,99285.25
2022-09-23T23:40:04.143Z,99283.72
2022-09-23T23:42:33.050Z,99279.20
2022-09-23T23:45:01.535Z,99272.56
2022-09-23T23:47:29.893Z,99268.08
2022-09-23T23:49:58.189Z,99271.33
2022-09-23T23:52:26.451Z,99266.59
2022-09-23T23:54:54.820Z,99268.61
2022-09-23T23:57:23.079Z,99272.38
2022-09-23T23:59:51.305Z,99273.97
